Terminal Aerodrome Forecast
Issued by NWS Bismarck, ND

Home | Current Version | Previous Version | Graphics & Text | Print | Product List | Glossary On
Versions: 1 2 3 4 5 6 7 8 9 10 11 12 13 14 15
000
FTUS43 KBIS 281120
TAFBIS
TAF
KBIS 281120Z 2812/2912 27017G28KT P6SM BKN020
     FM281500 26020G30KT P6SM SCT035
     FM281800 26030G45KT P6SM SCT050
     FM290200 28020KT P6SM BKN060=

USA.gov is the U.S. government's official web portal to all federal, state and local government web resources and services.